createdAt,value
2018-09-18T00:00:53.417Z,0.21
2018-09-18T00:10:53.452Z,0.54
2018-09-18T00:20:53.496Z,0.96
2018-09-18T00:30:53.493Z,1.68
2018-09-18T00:40:53.506Z,2.22
2018-09-18T00:50:53.527Z,2.19
2018-09-18T01:00:53.509Z,1.70
2018-09-18T01:10:54.413Z,1.74
2018-09-18T01:20:53.495Z,1.37
2018-09-18T01:30:53.441Z,0.99
2018-09-18T01:40:53.464Z,0.72
2018-09-18T01:50:53.601Z,0.13
2018-09-18T02:00:53.470Z,0.04
2018-09-18T02:10:54.513Z,0.01
2018-09-18T02:20:53.508Z,0.00
2018-09-18T02:30:53.495Z,0.00
2018-09-18T02:40:53.460Z,0.01
2018-09-18T02:50:53.582Z,0.01
2018-09-18T03:00:53.498Z,0.21
2018-09-18T03:10:53.514Z,1.06
2018-09-18T03:20:53.539Z,1.88
2018-09-18T03:30:53.466Z,2.20
2018-09-18T03:40:53.522Z,2.15
2018-09-18T03:50:53.744Z,2.59
2018-09-18T04:00:53.515Z,2.65
2018-09-18T04:10:53.523Z,2.55
2018-09-18T04:20:53.488Z,2.99
2018-09-18T04:30:53.555Z,2.83
2018-09-18T04:40:53.680Z,2.85
2018-09-18T04:50:53.529Z,3.10
2018-09-18T05:00:53.490Z,2.91
2018-09-18T05:10:53.550Z,2.50
2018-09-18T05:20:53.573Z,3.03
2018-09-18T05:30:53.564Z,2.73
2018-09-18T05:40:53.549Z,2.66
2018-09-18T05:50:53.641Z,2.26
2018-09-18T06:00:53.619Z,2.38
2018-09-18T06:10:53.517Z,2.31
2018-09-18T06:20:53.596Z,2.50
2018-09-18T06:30:53.498Z,2.32
2018-09-18T06:40:53.569Z,2.24
2018-09-18T06:50:53.649Z,3.19
2018-09-18T07:00:53.692Z,2.87
2018-09-18T07:10:53.649Z,3.31
2018-09-18T07:20:53.550Z,4.27
2018-09-18T07:30:53.618Z,3.74
2018-09-18T07:40:53.539Z,3.34
2018-09-18T07:50:53.541Z,3.93
2018-09-18T08:00:53.639Z,3.21
2018-09-18T08:10:54.146Z,3.94
2018-09-18T08:20:53.599Z,3.55
2018-09-18T08:30:54.266Z,4.15
2018-09-18T08:40:53.704Z,3.81
2018-09-18T08:50:53.731Z,3.23
2018-09-18T09:00:53.577Z,4.98
2018-09-18T09:10:59.643Z,3.76
2018-09-18T09:20:53.677Z,4.88
2018-09-18T09:30:53.657Z,5.59
2018-09-18T09:40:54.278Z,5.05
2018-09-18T09:50:53.653Z,4.99
2018-09-18T10:21:20.769Z,4.66
2018-09-18T10:31:20.833Z,4.48
2018-09-18T10:41:20.961Z,5.24
2018-09-18T10:51:20.815Z,5.25
2018-09-18T11:01:20.768Z,5.85
2018-09-18T11:11:20.841Z,4.73
2018-09-18T11:21:20.877Z,5.00
2018-09-18T11:31:20.933Z,5.75
